createdAt,value
2022-08-07T00:00:56.071Z,100639.81
2022-08-07T00:02:40.629Z,100640.88
2022-08-07T00:02:59.348Z,100640.7
2022-08-07T00:03:59.970Z,100640.3
2022-08-07T00:05:01.203Z,100640.53
2022-08-07T00:06:01.621Z,100645
2022-08-07T00:07:05.140Z,100645.5
2022-08-07T00:08:07.671Z,100649.48
2022-08-07T00:09:16.667Z,100649.4
2022-08-07T00:10:27.028Z,100651.84
2022-08-07T00:11:12.509Z,100654.73
2022-08-07T00:12:15.253Z,100652.5
2022-08-07T00:13:23.845Z,100655.58
2022-08-07T00:14:18.262Z,100656.5
2022-08-07T00:15:18.880Z,100653.55
2022-08-07T00:16:21.675Z,100655.62
2022-08-07T00:17:20.691Z,100654.2
2022-08-07T00:18:24.682Z,100657.72
2022-08-07T00:19:29.106Z,100657.99
2022-08-07T00:20:29.703Z,100659.57
2022-08-07T00:21:56.304Z,100656.95
2022-08-07T00:22:35.107Z,100659.72
2022-08-07T00:23:35.116Z,100662.44
2022-08-07T00:24:34.309Z,100660.48
2022-08-07T00:25:37.429Z,100663.01
2022-08-07T00:26:59.000Z,100665.06
2022-08-07T00:27:52.411Z,100665.22
2022-08-07T00:28:55.626Z,100664.27
2022-08-07T00:29:50.209Z,100669.07
2022-08-07T00:30:50.315Z,100672.53
2022-08-07T00:31:51.327Z,100671.91
2022-08-07T00:32:51.460Z,100668.47
2022-08-07T00:33:51.252Z,100670.95
2022-08-07T00:34:51.569Z,100672.53
2022-08-07T00:35:52.905Z,100669.5
2022-08-07T00:36:52.819Z,100670.49
2022-08-07T00:37:53.038Z,100668.98
2022-08-07T00:38:53.340Z,100669.89
2022-08-07T00:39:54.629Z,100666.23
2022-08-07T00:40:54.172Z,100669.28
2022-08-07T00:42:02.235Z,100665.99
2022-08-07T00:42:57.658Z,100669.3
2022-08-07T00:43:58.998Z,100669.73
2022-08-07T00:44:59.842Z,100672.19
2022-08-07T00:46:02.022Z,100672.39
2022-08-07T00:47:06.585Z,100670.86
2022-08-07T00:48:07.866Z,100674.41
2022-08-07T00:49:08.044Z,100676.28
2022-08-07T00:50:19.005Z,100675.67
2022-08-07T00:51:12.257Z,100674.64
2022-08-07T00:52:12.369Z,100676.95
2022-08-07T00:53:12.985Z,100676.48
2022-08-07T00:54:13.404Z,100676.41
2022-08-07T00:55:13.719Z,100677.92
2022-08-07T00:56:15.159Z,100676.39
2022-08-07T00:57:17.004Z,100674.77
2022-08-07T00:58:15.894Z,100676.14
2022-08-07T00:59:16.305Z,100678.06
2022-08-07T01:00:17.230Z,100678.25
2022-08-07T01:01:19.159Z,100675.8
2022-08-07T01:02:28.585Z,100679.02
2022-08-07T01:03:54.878Z,100679.43
2022-08-07T01:04:25.092Z,100677.14
2022-08-07T01:05:25.355Z,100679.59
2022-08-07T01:06:25.263Z,100679.09
2022-08-07T01:07:27.611Z,100679.81
2022-08-07T01:08:25.992Z,100675.58
2022-08-07T01:10:03.972Z,100681.25
2022-08-07T01:10:29.601Z,100677.84
2022-08-07T01:12:27.671Z,100680.77
2022-08-07T01:12:33.494Z,100678.69
2022-08-07T01:13:35.207Z,100680.57
2022-08-07T01:14:37.190Z,100682.95
2022-08-07T01:16:00.903Z,100682.89
2022-08-07T01:16:38.130Z,100680.44
2022-08-07T01:17:39.936Z,100682.77
2022-08-07T01:18:38.960Z,100685.66
2022-08-07T01:19:39.935Z,100681.69
2022-08-07T01:21:45.023Z,100681.86
2022-08-07T01:22:46.910Z,100683.45
2022-08-07T01:23:48.308Z,100679.64
2022-08-07T01:24:49.223Z,100687.16
2022-08-07T01:25:55.266Z,100687.61
2022-08-07T01:26:54.470Z,100688.66
2022-08-07T01:27:55.822Z,100688.89
2022-08-07T01:28:55.511Z,100690.3
2022-08-07T01:29:55.410Z,100688.25
2022-08-07T01:30:56.236Z,100696.31
2022-08-07T01:31:59.452Z,100693.8
2022-08-07T01:32:58.284Z,100694.06
2022-08-07T01:33:59.138Z,100692.59
2022-08-07T01:35:00.882Z,100695.83
2022-08-07T01:36:06.183Z,100697.28
2022-08-07T01:37:04.883Z,100698.15
2022-08-07T01:38:07.861Z,100699.74
2022-08-07T01:39:10.687Z,100699.02
2022-08-07T01:40:14.959Z,100699.46
2022-08-07T01:41:26.089Z,100699.69
2022-08-07T01:42:37.911Z,100703.05
2022-08-07T01:43:18.542Z,100700.42
2022-08-07T01:44:19.162Z,100699.02
2022-08-07T01:45:22.941Z,100700
2022-08-07T01:46:23.988Z,100699.35
2022-08-07T01:48:27.457Z,100704.81
2022-08-07T01:48:30.958Z,100701.57
2022-08-07T01:49:28.509Z,100705.27
2022-08-07T01:50:30.770Z,100706.77
2022-08-07T01:52:01.874Z,100702.03
2022-08-07T01:52:34.876Z,100702.69
2022-08-07T01:54:09.456Z,100705.3
2022-08-07T01:54:38.581Z,100709.98
2022-08-07T01:58:01.551Z,100709.59
2022-08-07T02:03:18.524Z,100709.08
2022-08-07T02:04:01.849Z,100707.55
2022-08-07T02:06:30.997Z,100712.15
2022-08-07T02:07:06.920Z,100712.45
2022-08-07T02:08:11.310Z,100712.48
2022-08-07T02:09:09.413Z,100708.42
2022-08-07T02:10:11.231Z,100709.02
2022-08-07T02:11:30.993Z,100713.02
2022-08-07T02:12:17.867Z,100710.98
2022-08-07T02:13:17.311Z,100708.8
2022-08-07T02:14:35.879Z,100712.53
2022-08-07T02:15:26.350Z,100711.02
2022-08-07T02:16:28.353Z,100714.75
2022-08-07T02:17:34.013Z,100714.02
2022-08-07T02:18:35.870Z,100713.3
2022-08-07T02:20:05.063Z,100721.43
2022-08-07T02:20:37.422Z,100719.14
2022-08-07T02:21:55.179Z,100716.08
2022-08-07T02:22:41.338Z,100720.44
2022-08-07T02:23:41.840Z,100720.28
2022-08-07T02:24:44.829Z,100716.45
2022-08-07T02:26:31.973Z,100721.13
2022-08-07T02:26:47.393Z,100718.5
2022-08-07T02:27:51.186Z,100720.91
2022-08-07T02:28:50.584Z,100720.91
2022-08-07T02:29:54.710Z,100717.77
2022-08-07T02:30:53.878Z,100724.17
2022-08-07T02:31:53.563Z,100722.77
2022-08-07T02:33:03.647Z,100719.34
2022-08-07T02:34:02.778Z,100721.11
2022-08-07T02:35:03.418Z,100716.34
2022-08-07T02:36:28.182Z,100714.7
2022-08-07T02:37:10.191Z,100719.56
2022-08-07T02:38:08.760Z,100715.58
2022-08-07T02:39:17.221Z,100718.05
2022-08-07T02:40:31.147Z,100719.97
2022-08-07T02:41:21.907Z,100714.98
2022-08-07T02:42:20.574Z,100714.93
2022-08-07T02:43:20.563Z,100715.23
2022-08-07T02:44:21.807Z,100716.34
2022-08-07T02:46:00.613Z,100715.7
2022-08-07T02:46:26.526Z,100720.2
2022-08-07T02:47:27.148Z,100714.81
2022-08-07T02:48:28.116Z,100721.48
2022-08-07T02:49:57.644Z,100717.9
2022-08-07T02:50:34.749Z,100717.4
2022-08-07T02:51:49.917Z,100715.13
2022-08-07T02:53:39.170Z,100713.45
2022-08-07T02:56:03.310Z,100709.99
2022-08-07T02:56:41.545Z,100712.66
2022-08-07T02:57:41.154Z,100707.86
2022-08-07T02:58:47.509Z,100707.89
2022-08-07T02:59:55.271Z,100710.92
2022-08-07T03:00:52.172Z,100712.27
2022-08-07T03:01:52.188Z,100710.77
2022-08-07T03:02:54.969Z,100712.75
2022-08-07T03:03:54.494Z,100716.86
2022-08-07T03:04:56.243Z,100715.84
2022-08-07T03:05:57.291Z,100714.91
2022-08-07T03:06:56.152Z,100712.82
2022-08-07T03:08:07.462Z,100716.86
2022-08-07T03:08:57.501Z,100714.92
2022-08-07T03:09:58.221Z,100716.24
2022-08-07T03:10:59.567Z,100715.1
2022-08-07T03:12:02.763Z,100717.73
2022-08-07T03:13:01.624Z,100717.25
2022-08-07T03:14:04.094Z,100716.73
2022-08-07T03:15:07.763Z,100716.12
2022-08-07T03:16:06.042Z,100718.25
2022-08-07T03:17:08.635Z,100721.39
2022-08-07T03:18:06.463Z,100718.54
2022-08-07T03:19:08.423Z,100723.7
2022-08-07T03:20:09.243Z,100722.94
2022-08-07T03:21:11.262Z,100721.47
2022-08-07T03:22:18.592Z,100722
2022-08-07T03:23:19.184Z,100722.28
2022-08-07T03:24:19.060Z,100725.05
2022-08-07T03:25:14.605Z,100726.33
2022-08-07T03:26:21.252Z,100727.42
2022-08-07T03:27:30.382Z,100732.23
2022-08-07T03:28:37.661Z,100723.69
2022-08-07T03:29:22.511Z,100726.98
2022-08-07T03:30:26.100Z,100726.71
2022-08-07T03:31:42.286Z,100726.61
2022-08-07T03:33:32.243Z,100724.01
2022-08-07T03:34:34.017Z,100723.48
2022-08-07T03:35:44.244Z,100721.33
2022-08-07T03:36:40.686Z,100727
2022-08-07T03:37:46.208Z,100728.59
2022-08-07T03:38:42.545Z,100728.53
2022-08-07T03:39:59.851Z,100729.86
2022-08-07T03:40:45.956Z,100733.28
2022-08-07T03:41:50.760Z,100733.17
2022-08-07T03:42:51.784Z,100737.3
2022-08-07T03:43:57.133Z,100737.41
2022-08-07T03:44:58.014Z,100736.88
2022-08-07T03:45:56.102Z,100736.8
2022-08-07T03:47:13.967Z,100734.91
2022-08-07T03:47:57.964Z,100738.87
2022-08-07T03:49:02.569Z,100742.8
2022-08-07T03:50:00.935Z,100740.31
2022-08-07T03:51:03.295Z,100738.83
2022-08-07T03:52:02.691Z,100739.53
2022-08-07T03:53:03.021Z,100740.27
2022-08-07T03:54:36.303Z,100740.98
2022-08-07T03:55:07.847Z,100741.09
2022-08-07T03:56:07.641Z,100737.19
2022-08-07T03:57:07.656Z,100738.16
2022-08-07T03:58:33.993Z,100742.23
2022-08-07T03:59:13.482Z,100740.78
2022-08-07T04:00:12.690Z,100740.75
2022-08-07T04:01:15.316Z,100744.78
2022-08-07T04:02:13.723Z,100745
2022-08-07T04:03:13.824Z,100743.06
2022-08-07T04:04:17.750Z,100744.05
2022-08-07T04:05:15.591Z,100746.48
2022-08-07T04:06:37.460Z,100745.47
2022-08-07T04:07:22.901Z,100748.19
2022-08-07T04:08:21.431Z,100749.94
2022-08-07T04:09:23.217Z,100749.66
2022-08-07T04:10:21.651Z,100751.57
2022-08-07T04:12:25.455Z,100748.03
2022-08-07T04:12:28.902Z,100749.58
2022-08-07T04:13:27.918Z,100754.02
2022-08-07T04:14:37.450Z,100750.05
2022-08-07T04:15:31.629Z,100752.2
2022-08-07T04:16:32.562Z,100753.02
2022-08-07T04:18:56.303Z,100752.27
2022-08-07T04:18:59.423Z,100750.53
2022-08-07T04:19:52.093Z,100755.14
2022-08-07T04:20:43.084Z,100756.63
2022-08-07T04:21:58.868Z,100756.72
2022-08-07T04:22:53.403Z,100755.48
2022-08-07T04:24:06.016Z,100755.12
2022-08-07T04:24:50.732Z,100756.06
2022-08-07T04:25:52.470Z,100753.94
2022-08-07T04:26:50.949Z,100756.09
2022-08-07T04:27:59.422Z,100753.85
2022-08-07T04:28:53.520Z,100757.36
2022-08-07T04:29:58.838Z,100755.12
2022-08-07T04:30:58.664Z,100760.55
2022-08-07T04:32:03.192Z,100761.19
2022-08-07T04:32:58.745Z,100762.95
2022-08-07T04:33:58.872Z,100766.59
2022-08-07T04:34:58.532Z,100764.8
2022-08-07T04:35:59.501Z,100762.2
2022-08-07T04:36:59.924Z,100765.64
2022-08-07T04:38:05.578Z,100764.28
2022-08-07T04:39:00.234Z,100763.78
2022-08-07T04:40:00.435Z,100765.42
2022-08-07T04:41:00.657Z,100764.33
2022-08-07T04:42:02.925Z,100765.27
2022-08-07T04:43:03.237Z,100764.06
2022-08-07T04:44:11.863Z,100766.88
2022-08-07T04:45:08.165Z,100765.27
2022-08-07T05:00:55.375Z,100777.17
2022-08-07T05:15:38.882Z,100792.36
2022-08-07T05:16:44.106Z,100793.18
2022-08-07T05:17:52.069Z,100791.7
2022-08-07T05:20:50.782Z,100799.49
2022-08-07T05:22:57.151Z,100803.48
2022-08-07T05:25:00.465Z,100803.01
2022-08-07T05:26:10.769Z,100803.34
2022-08-07T05:27:05.485Z,100805.29
2022-08-07T05:28:20.345Z,100800.7
2022-08-07T05:29:13.978Z,100805.45
2022-08-07T05:30:13.584Z,100806.66
2022-08-07T05:31:16.753Z,100801.2
2022-08-07T05:33:18.065Z,100805.38
2022-08-07T05:34:19.764Z,100809.48
2022-08-07T05:35:23.585Z,100804.98
2022-08-07T05:36:30.408Z,100802.53
2022-08-07T05:37:25.163Z,100809.51
2022-08-07T05:39:00.672Z,100805.22
2022-08-07T05:40:13.833Z,100807.03
2022-08-07T05:40:30.381Z,100809.22
2022-08-07T05:42:02.786Z,100811.44
2022-08-07T05:42:36.932Z,100808.82
2022-08-07T05:43:49.761Z,100808.42
2022-08-07T05:44:41.549Z,100808.34
2022-08-07T05:45:47.416Z,100809.42
2022-08-07T05:46:51.268Z,100809.72
2022-08-07T05:48:01.346Z,100808.07
2022-08-07T05:48:58.382Z,100811.19
2022-08-07T05:49:53.334Z,100810.84
2022-08-07T05:50:53.129Z,100809.53
2022-08-07T05:51:52.933Z,100814.5
2022-08-07T05:52:53.354Z,100811.04
2022-08-07T05:54:12.657Z,100810.53
2022-08-07T05:54:58.781Z,100809.95
2022-08-07T05:56:01.915Z,100807.48
2022-08-07T05:57:03.453Z,100806.36
2022-08-07T05:58:03.410Z,100808.71
2022-08-07T05:59:03.627Z,100808.72
2022-08-07T06:00:07.536Z,100807.06
2022-08-07T06:01:12.236Z,100803.98
2022-08-07T06:02:17.731Z,100805.2
2022-08-07T06:03:14.305Z,100806.72
2022-08-07T06:04:17.458Z,100807.7
2022-08-07T06:05:16.362Z,100807.56
2022-08-07T06:06:17.449Z,100811.89
2022-08-07T06:07:23.059Z,100811.65
2022-08-07T06:08:30.662Z,100806.79
2022-08-07T06:10:04.259Z,100809.73
2022-08-07T06:10:28.276Z,100807.29
2022-08-07T06:11:28.675Z,100804.2
2022-08-07T06:12:32.949Z,100801.92
2022-08-07T06:14:10.986Z,100804.64
2022-08-07T06:14:33.421Z,100800.33
2022-08-07T06:15:39.191Z,100803.31
2022-08-07T06:16:35.896Z,100805.93
2022-08-07T06:17:37.410Z,100803.84
2022-08-07T06:18:36.734Z,100808.16
2022-08-07T06:19:52.353Z,100803.82
2022-08-07T06:20:51.102Z,100809.45
2022-08-07T06:22:15.070Z,100810.04
2022-08-07T06:23:02.548Z,100808.04
2022-08-07T06:24:45.414Z,100811.27
2022-08-07T06:24:58.020Z,100812.47
2022-08-07T06:25:57.278Z,100811.14
2022-08-07T06:26:56.866Z,100811.02
2022-08-07T06:29:01.683Z,100817.47
2022-08-07T06:30:04.648Z,100821.45
2022-08-07T06:31:04.356Z,100817.88
2022-08-07T06:32:05.695Z,100820.4
2022-08-07T06:33:09.799Z,100819.13
2022-08-07T06:34:08.368Z,100824.04
2022-08-07T06:35:10.604Z,100819.23
2022-08-07T06:36:13.179Z,100814.75
2022-08-07T06:37:11.661Z,100813.41
2022-08-07T06:38:19.937Z,100813.7
2022-08-07T06:40:17.214Z,100818.87
2022-08-07T06:40:21.293Z,100823.38
2022-08-07T06:43:39.122Z,100827.69
2022-08-07T06:44:31.297Z,100826.76
2022-08-07T06:45:32.296Z,100829.48
2022-08-07T06:46:35.520Z,100829.69
2022-08-07T06:47:48.405Z,100828.76
2022-08-07T06:48:36.712Z,100825.39
2022-08-07T06:49:50.939Z,100827.03
2022-08-07T06:50:43.198Z,100824.92
2022-08-07T06:51:49.849Z,100828.86
2022-08-07T06:52:53.024Z,100829.79
2022-08-07T06:54:11.795Z,100827.36
2022-08-07T06:55:34.051Z,100829.06
2022-08-07T06:56:01.184Z,100825.77
2022-08-07T06:57:00.742Z,100826.61
2022-08-07T07:00:12.819Z,100829.37
2022-08-07T07:00:14.210Z,100835.02
2022-08-07T07:01:11.053Z,100836.69
2022-08-07T07:02:14.562Z,100831.34
2022-08-07T07:03:10.828Z,100834.53
2022-08-07T07:04:28.587Z,100837.58
2022-08-07T07:05:13.031Z,100840.21
2022-08-07T07:06:12.088Z,100835.55
2022-08-07T07:07:19.238Z,100838.06
2022-08-07T07:08:18.789Z,100837.59
2022-08-07T07:09:26.824Z,100838.64
2022-08-07T07:10:28.471Z,100836.42
2022-08-07T07:12:08.691Z,100836.42
2022-08-07T07:15:37.848Z,100836.88
2022-08-07T07:16:49.697Z,100837.38
2022-08-07T07:17:50.559Z,100841.83
2022-08-07T07:18:48.774Z,100836.89
2022-08-07T07:19:56.920Z,100838.98
2022-08-07T07:20:53.724Z,100839.83
2022-08-07T07:22:04.971Z,100840.91
2022-08-07T07:24:06.232Z,100844.69
2022-08-07T07:24:08.774Z,100841.22
2022-08-07T07:24:57.031Z,100843.47
2022-08-07T07:26:35.580Z,100844.91
2022-08-07T07:26:59.398Z,100840.2
2022-08-07T07:28:02.412Z,100841.03
2022-08-07T07:29:38.693Z,100842.3
2022-08-07T07:30:09.822Z,100843.1
2022-08-07T07:31:10.585Z,100840.91
2022-08-07T07:32:12.120Z,100842.45
2022-08-07T07:33:14.076Z,100844.26
2022-08-07T07:34:18.389Z,100844.14
2022-08-07T07:35:17.978Z,100843.66
2022-08-07T07:36:18.008Z,100841.95
2022-08-07T07:37:45.438Z,100843.45
2022-08-07T07:38:22.623Z,100844.25
2022-08-07T07:39:22.690Z,100843.39
2022-08-07T07:40:25.225Z,100841.77
2022-08-07T07:41:50.473Z,100841.96
2022-08-07T07:42:32.754Z,100845.36
2022-08-07T07:44:14.637Z,100841.6
2022-08-07T07:44:38.418Z,100846.75
2022-08-07T07:46:37.546Z,100845.65
2022-08-07T07:46:56.017Z,100847.31
2022-08-07T07:47:52.670Z,100847.91
2022-08-07T07:48:48.593Z,100849.37
2022-08-07T07:50:33.222Z,100845.82
2022-08-07T07:50:54.220Z,100847.44
2022-08-07T07:52:55.271Z,100844.84
2022-08-07T07:53:56.020Z,100849.59
2022-08-07T07:54:57.751Z,100852.42
2022-08-07T07:56:00.859Z,100851.35
2022-08-07T07:57:01.456Z,100849.45
2022-08-07T07:58:02.886Z,100851.25
2022-08-07T07:59:02.784Z,100853.98
2022-08-07T08:00:02.904Z,100855.33
2022-08-07T08:01:03.177Z,100855.65
2022-08-07T08:02:10.815Z,100853.78
2022-08-07T08:03:16.664Z,100854.56
2022-08-07T08:04:12.237Z,100856.13
2022-08-07T08:05:14.969Z,100856.09
2022-08-07T08:06:13.104Z,100854.3
2022-08-07T08:07:15.424Z,100857.69
2022-08-07T08:08:34.704Z,100860.03
2022-08-07T08:09:23.044Z,100861.8
2022-08-07T08:10:37.680Z,100861.05
2022-08-07T08:11:59.230Z,100861.27
2022-08-07T08:12:51.180Z,100856.63
2022-08-07T08:13:36.812Z,100861.88
2022-08-07T08:14:36.117Z,100861.47
2022-08-07T08:17:58.294Z,100866.55
2022-08-07T08:18:41.300Z,100860.7
2022-08-07T08:20:17.859Z,100863.59
2022-08-07T08:20:48.703Z,100869.48
2022-08-07T08:21:55.696Z,100871.7
2022-08-07T08:22:54.266Z,100870.34
2022-08-07T08:23:55.564Z,100871.05
2022-08-07T08:25:04.450Z,100869.36
2022-08-07T08:26:07.081Z,100869.63
2022-08-07T08:27:02.564Z,100869.66
2022-08-07T08:28:05.123Z,100865.94
2022-08-07T08:29:04.205Z,100868.81
2022-08-07T08:30:06.565Z,100865.86
2022-08-07T08:31:06.582Z,100867.22
2022-08-07T08:32:18.917Z,100867.84
2022-08-07T08:33:15.042Z,100869.33
2022-08-07T08:34:10.382Z,100865.02
2022-08-07T08:35:17.219Z,100866.09
2022-08-07T08:36:16.139Z,100867.51
2022-08-07T08:37:59.367Z,100870.34
2022-08-07T08:38:29.339Z,100870.69
2022-08-07T08:39:23.767Z,100865.14
2022-08-07T08:41:58.367Z,100866.77
2022-08-07T08:50:54.622Z,100871.72
2022-08-07T08:52:14.459Z,100866.08
2022-08-07T08:56:14.421Z,100868.37
2022-08-07T08:57:11.529Z,100865.03
2022-08-07T08:58:20.430Z,100865.6
2022-08-07T09:00:12.905Z,100868.19
2022-08-07T09:30:01.206Z,100865.55
2022-08-07T09:30:28.050Z,100865.38
2022-08-07T10:00:16.509Z,100862.86
2022-08-07T10:21:19.824Z,100862.25
2022-08-07T10:49:45.598Z,100853.73
2022-08-07T10:53:41.723Z,100860.81
2022-08-07T11:15:26.282Z,100848.59
2022-08-07T11:18:35.072Z,100850.76
2022-08-07T11:31:08.901Z,100839.57
2022-08-07T11:32:10.220Z,100843.36
2022-08-07T11:33:14.239Z,100843.69
2022-08-07T11:35:16.639Z,100840.56
2022-08-07T11:41:29.705Z,100841.94
2022-08-07T11:43:54.501Z,100843.34
2022-08-07T12:09:38.521Z,100836.22
2022-08-07T12:24:37.798Z,100840.54
2022-08-07T12:27:28.025Z,100839.3
2022-08-07T12:33:56.418Z,100831.57
2022-08-07T12:34:49.508Z,100831.92
2022-08-07T12:35:57.696Z,100833.66
2022-08-07T12:36:53.658Z,100838.27
2022-08-07T12:38:08.989Z,100832.52
2022-08-07T12:38:57.106Z,100835.48
2022-08-07T12:39:57.713Z,100833.03
2022-08-07T12:40:59.444Z,100831.17
2022-08-07T12:42:01.268Z,100829.94
2022-08-07T12:43:09.490Z,100830.27
2022-08-07T12:44:10.370Z,100828.66
2022-08-07T12:45:13.755Z,100828.91
2022-08-07T12:51:46.373Z,100820.56
2022-08-07T12:56:36.168Z,100817.62
2022-08-07T12:57:59.522Z,100814.72
2022-08-07T12:58:46.653Z,100814.61
2022-08-07T12:59:54.256Z,100812.59
2022-08-07T13:26:46.809Z,100806.14
2022-08-07T13:28:12.480Z,100801.23
2022-08-07T13:31:12.935Z,100809.5
2022-08-07T13:32:06.275Z,100813.16
2022-08-07T13:34:14.555Z,100812.98
2022-08-07T13:38:20.266Z,100801.73
2022-08-07T13:42:25.707Z,100809.73
2022-08-07T13:43:24.808Z,100807.83
2022-08-07T13:44:34.490Z,100809.16
2022-08-07T13:46:11.683Z,100807.23
2022-08-07T13:46:37.618Z,100808.5
2022-08-07T13:48:06.555Z,100810.55
2022-08-07T13:48:38.705Z,100812.9
2022-08-07T13:50:33.729Z,100809.23
2022-08-07T13:50:45.124Z,100808.38
2022-08-07T13:52:23.016Z,100810.08
2022-08-07T13:52:43.607Z,100810.8
2022-08-07T13:54:49.316Z,100808.81
2022-08-07T13:55:54.573Z,100809.57
2022-08-07T13:56:51.970Z,100806.02
2022-08-07T13:59:01.093Z,100806.13
2022-08-07T14:00:01.172Z,100805.98
2022-08-07T14:01:09.225Z,100803.69
2022-08-07T14:02:06.825Z,100807.48
2022-08-07T14:03:07.326Z,100802.23
2022-08-07T14:04:11.700Z,100800.33
2022-08-07T14:05:10.043Z,100800.9
2022-08-07T14:06:12.563Z,100799.98
2022-08-07T14:07:12.676Z,100804.38
2022-08-07T14:08:11.782Z,100801.33
2022-08-07T14:10:14.967Z,100800.77
2022-08-07T14:10:20.395Z,100799.36
2022-08-07T14:11:21.699Z,100797.53
2022-08-07T14:12:27.614Z,100800.72
2022-08-07T14:13:21.026Z,100800.2
2022-08-07T14:14:16.932Z,100799.17
2022-08-07T14:16:17.758Z,100799.82
2022-08-07T14:18:12.334Z,100798.77
2022-08-07T14:20:44.584Z,100792.27
2022-08-07T14:22:35.318Z,100795.94
2022-08-07T14:24:01.131Z,100797.1
2022-08-07T14:24:41.493Z,100795.38
2022-08-07T14:25:45.844Z,100799.73
2022-08-07T14:28:20.949Z,100793.38
2022-08-07T14:28:59.138Z,100792.78
2022-08-07T14:30:07.940Z,100794.88
2022-08-07T14:30:52.441Z,100796.16
2022-08-07T14:31:56.480Z,100797.34
2022-08-07T14:32:59.130Z,100792.69
2022-08-07T14:33:53.803Z,100793.45
2022-08-07T14:34:56.807Z,100794.14
2022-08-07T14:35:58.839Z,100791.23
2022-08-07T14:36:58.755Z,100792.83
2022-08-07T14:38:03.228Z,100792.33
2022-08-07T14:39:06.513Z,100792.02
2022-08-07T14:40:17.258Z,100797.94
2022-08-07T14:42:18.732Z,100794.12
2022-08-07T14:43:57.949Z,100794.7
2022-08-07T14:44:19.981Z,100795.88
2022-08-07T14:45:24.192Z,100794.09
2022-08-07T14:46:31.403Z,100796.05
2022-08-07T14:47:33.873Z,100799.23
2022-08-07T14:48:34.246Z,100795.59
2022-08-07T14:49:57.265Z,100792.2
2022-08-07T14:52:42.473Z,100790.28
2022-08-07T14:54:05.739Z,100790.21
2022-08-07T14:54:44.118Z,100788.94
2022-08-07T14:55:56.493Z,100788.17
2022-08-07T14:56:48.145Z,100787.55
2022-08-07T14:57:58.812Z,100788.47
2022-08-07T14:58:55.058Z,100791.8
2022-08-07T15:00:04.166Z,100790.38
2022-08-07T15:00:50.091Z,100784.95
2022-08-07T15:01:50.857Z,100786.78
2022-08-07T15:02:56.727Z,100783.36
2022-08-07T15:03:52.141Z,100784.53
2022-08-07T15:04:53.136Z,100787.56
2022-08-07T15:06:03.698Z,100787.08
2022-08-07T15:06:58.033Z,100786.47
2022-08-07T15:07:59.873Z,100792.2
2022-08-07T15:10:04.887Z,100791.09
2022-08-07T15:11:15.003Z,100791.66
2022-08-07T15:12:26.018Z,100786.06
2022-08-07T15:17:55.546Z,100786.69
2022-08-07T15:18:35.998Z,100785.53
2022-08-07T15:20:30.339Z,100782.49
2022-08-07T15:25:03.050Z,100786.47
2022-08-07T15:25:15.252Z,100788.33
2022-08-07T15:25:54.050Z,100787.13
2022-08-07T15:26:57.225Z,100791.53
2022-08-07T15:28:30.971Z,100790.05
2022-08-07T15:31:06.712Z,100792.3
2022-08-07T15:32:06.282Z,100788.76
2022-08-07T15:34:15.101Z,100792.09
2022-08-07T15:37:02.456Z,100794.11
2022-08-07T15:39:26.658Z,100796.22
2022-08-07T15:40:34.804Z,100793.97
2022-08-07T15:43:55.938Z,100788.68
2022-08-07T15:44:52.013Z,100791.94
2022-08-07T15:45:56.362Z,100788.87
2022-08-07T15:46:55.721Z,100788.26
2022-08-07T15:49:11.773Z,100793.96
2022-08-07T15:50:05.555Z,100792.44
2022-08-07T15:51:09.934Z,100787.44
2022-08-07T15:52:10.726Z,100786.7
2022-08-07T15:53:12.858Z,100788.41
2022-08-07T15:54:13.075Z,100785.7
2022-08-07T15:55:15.329Z,100784.5
2022-08-07T15:56:14.135Z,100788.06
2022-08-07T15:57:39.267Z,100786.27
2022-08-07T15:58:20.703Z,100790.7
2022-08-07T15:59:39.762Z,100787.12
2022-08-07T16:00:31.638Z,100787.01
2022-08-07T16:01:38.565Z,100786.39
2022-08-07T16:02:34.016Z,100784.48
2022-08-07T16:03:46.254Z,100782.7
2022-08-07T16:04:38.011Z,100784.12
2022-08-07T16:05:38.346Z,100784.51
2022-08-07T16:08:47.367Z,100780.68
2022-08-07T17:07:51.563Z,100791.14
2022-08-07T17:20:01.877Z,100792.48
2022-08-07T17:20:56.546Z,100789.51
2022-08-07T17:22:05.782Z,100791.66
2022-08-07T17:23:08.587Z,100790.72
2022-08-07T17:30:20.449Z,100788.71
2022-08-07T17:31:21.863Z,100789.61
2022-08-07T17:36:30.648Z,100797.52
2022-08-07T17:38:05.618Z,100797.47
2022-08-07T17:44:54.525Z,100802.35
2022-08-07T17:48:10.391Z,100804.97
2022-08-07T17:49:09.261Z,100807.38
2022-08-07T17:50:06.371Z,100802.22
2022-08-07T17:54:29.773Z,100808.88
2022-08-07T17:56:29.795Z,100811.97
2022-08-07T17:59:35.805Z,100812.67
2022-08-07T18:00:48.511Z,100815.88
2022-08-07T18:09:02.275Z,100819.3
2022-08-07T18:10:06.762Z,100821.57
2022-08-07T18:18:44.806Z,100830.2
2022-08-07T18:21:06.024Z,100828.26
2022-08-07T18:21:51.510Z,100832.39
2022-08-07T18:25:40.856Z,100833.75
2022-08-07T18:56:58.114Z,100851.11
2022-08-07T19:04:09.795Z,100855.22
2022-08-07T19:10:31.531Z,100851.74
2022-08-07T19:17:01.473Z,100858.65
2022-08-07T19:24:00.232Z,100863.31
2022-08-07T19:24:58.071Z,100860.81
2022-08-07T19:26:24.111Z,100857.98
2022-08-07T19:31:05.331Z,100859.14
2022-08-07T19:32:18.573Z,100862.15
2022-08-07T19:33:16.064Z,100863.91
2022-08-07T19:34:32.669Z,100865.45
2022-08-07T19:35:22.838Z,100864.27
2022-08-07T19:36:27.682Z,100862.89
2022-08-07T19:37:19.761Z,100865.55
2022-08-07T19:38:21.602Z,100865.2
2022-08-07T19:39:56.299Z,100863.17
2022-08-07T19:41:44.547Z,100864.16
2022-08-07T19:42:42.714Z,100868.32
2022-08-07T19:43:45.611Z,100865.73
2022-08-07T19:44:42.126Z,100866.98
2022-08-07T19:46:09.820Z,100865.73
2022-08-07T19:46:55.310Z,100865.85
2022-08-07T19:47:48.750Z,100868.53
2022-08-07T19:48:55.888Z,100864.91
2022-08-07T19:49:56.422Z,100864.19
2022-08-07T19:51:01.429Z,100867.33
2022-08-07T19:52:00.702Z,100867.78
2022-08-07T19:53:01.013Z,100866.02
2022-08-07T19:54:30.945Z,100865.34
2022-08-07T19:55:03.387Z,100863.88
2022-08-07T19:57:51.157Z,100863.88
2022-08-07T19:58:15.512Z,100864.77
2022-08-07T20:01:19.203Z,100865.47
2022-08-07T20:03:33.654Z,100865.98
2022-08-07T20:04:32.296Z,100864.98
2022-08-07T20:05:31.407Z,100866.48
2022-08-07T20:06:30.952Z,100866.4
2022-08-07T20:07:47.234Z,100864.83
2022-08-07T20:10:55.135Z,100867.47
2022-08-07T20:12:21.957Z,100868.16
2022-08-07T20:12:45.784Z,100868.52
2022-08-07T20:14:54.072Z,100869.21
2022-08-07T20:15:54.046Z,100870.29
2022-08-07T20:16:55.647Z,100867.02
2022-08-07T20:18:01.282Z,100868.42
2022-08-07T20:18:59.044Z,100872.36
2022-08-07T20:19:58.810Z,100870.03
2022-08-07T20:20:59.571Z,100873.16
2022-08-07T20:21:59.363Z,100868.47
2022-08-07T20:23:23.146Z,100868.19
2022-08-07T20:24:04.603Z,100872.73
2022-08-07T20:25:12.895Z,100871.14
2022-08-07T20:26:10.294Z,100867.64